Detall de PIREP

Printer-friendly versionPDF version

[2013/10/24 09:58:00]
Flight IATA:CT3232
Pilot Number:042
Company ICAO:CAT
Aircraft Type:B738/F
PAX:98
Departing Airport: LEPA
Destination Airport: LEMD
Alternate Airport:LEMG
Online: VATSIM
Route:EPAMA UN733 PRADO
Flight Level:F300
No Slew and time accel
No pause
Crash detect
Detect pilot in Cockpit between each 30 and 45 minutes
09:58 Zero fuel Weight: 121807 Lbs, Fuel Weight: 45553 Lbs
09:58 VATSIM:LEPA 240930Z 21004KT 170V280 9999 FEW025 25/19 Q1018 NOSIG
09:58 VATSIM:LEMD 240930Z 15005KT 100V190 9999 FEW005 BKN027 15/14 Q1017 R88/19//95 NOSIG
09:58 VOICE CATALONIAN
10:12 Parking Brakes off
10:22 Take-off
10:22 Take off Weight: 166220 Lbs
10:22 Wind: 000º @ 000 Knots Heading: 238º
10:22 POS N39º 33´ 04´´ E002º 43´ 09´´
10:22 Flaps:3 at 175 Knots
10:22 Gear Up: 176 Knots
10:23 Flaps:2 at 185 Knots
10:23 Flaps:1 at 227 Knots
10:23 Flaps:0 at 229 Knots
10:37Wind:270º@025 Knots Heading: 265º Ground Speed: 427 Knots Altitude 27437 ft
10:38 TOC
10:38 Fuel Weight: 40818 Lb
10:52 Wind:270º@025 Knots Heading: 297º Ground Speed: 422 Knots Altitude 29996 ft
10:53 TOD
10:53 Fuel Weight: 39333 Lb
11:07 Wind:270º@024 Knots Heading: 324º Ground Speed: 307 Knots Altitude 16899 ft
11:18 Flaps:1 at 221 Knots
11:19 Flaps:2 at 217 Knots
11:19 Flaps:3 at 205 Knots
11:22 Wind:314º@010 Knots Heading: 182º Ground Speed: 200 Knots Altitude 5925 ft
11:22 Flaps:4 at 177 Knots
11:23 Gear Down: 174 Knots
11:23 Flaps:5 at 169 Knots
11:23 Flaps:6 at 167 Knots
11:23 Flaps:7 at 166 Knots
11:23 Flaps:8 at 156 Knots
11:26 TouchDown:Rate -281 ft/min Speed: 129 Knots
11:27 VATSIM:LEMD 241100Z 16011KT 100V210 9999 FEW013 SCT020 BKN070 19/16 Q1016 R88/19//95 NOSIG
11:27 Land
11:27 Wind:000º@000 Knots
11:27 Heading: 176º
11:27 Flight Duration:01:05
11:27 Landing Weight: 159390 Lbs
11:27 POS N40º 30´ 37´´ W003º 33´ 33´´
11:42 Parking brakes on
11:42 Block to Block Duration: 01:30
11:42 Final Fuel: 35978 Lbls
11:42 Spent Fuel: 9574 Lbls
11:42 Flight Length: 348 NM
11:42 TOD Land Length: 152 NM

Exportar CSV

Powered by Drupal - Modified by Danger4k